createdAt,value
2019-04-06T00:00:47.627Z,28.38
2019-04-06T00:01:45.544Z,28.39
2019-04-06T00:02:25.602Z,28.39
2019-04-06T00:03:01.743Z,28.39
2019-04-06T00:03:37.920Z,28.40
2019-04-06T00:04:14.100Z,28.42
2019-04-06T00:04:50.400Z,28.43
2019-04-06T00:05:26.579Z,28.44
2019-04-06T00:06:02.797Z,28.46
2019-04-06T00:06:39.064Z,28.48
2019-04-06T00:07:15.257Z,28.49
2019-04-06T00:07:51.649Z,28.49
2019-04-06T00:08:27.803Z,28.52
2019-04-06T00:09:05.274Z,28.54
2019-04-06T00:09:41.587Z,28.57
2019-04-06T00:10:17.998Z,28.57
2019-04-06T00:10:55.269Z,28.59
2019-04-06T00:11:31.509Z,28.60
2019-04-06T00:12:07.696Z,28.61
2019-04-06T00:12:44.030Z,28.63
2019-04-06T00:13:20.419Z,28.66
2019-04-06T00:13:56.556Z,28.70
2019-04-06T00:14:32.721Z,28.73
2019-04-06T00:15:09.284Z,28.78
2019-04-06T00:15:45.570Z,28.81
2019-04-06T00:16:22.020Z,28.86
2019-04-06T00:16:58.319Z,28.93
2019-04-06T00:17:34.844Z,28.98
2019-04-06T00:18:10.801Z,29.03
2019-04-06T00:18:46.924Z,29.10
2019-04-06T00:19:23.017Z,29.15
2019-04-06T00:19:59.067Z,29.21
2019-04-06T00:20:35.103Z,29.28
2019-04-06T00:21:11.406Z,29.35
2019-04-06T00:21:47.669Z,29.42
2019-04-06T00:22:23.865Z,29.45
2019-04-06T00:23:00.065Z,29.40
2019-04-06T00:23:36.254Z,29.40
2019-04-06T00:24:12.379Z,29.45
2019-04-06T00:24:48.481Z,29.45
2019-04-06T00:25:24.644Z,29.48
2019-04-06T00:26:00.731Z,29.50
2019-04-06T00:26:37.599Z,29.51
2019-04-06T00:27:13.812Z,29.54
2019-04-06T00:27:49.912Z,29.56
2019-04-06T00:28:25.991Z,29.55
2019-04-06T00:29:01.960Z,29.56
2019-04-06T00:29:38.027Z,29.64
2019-04-06T00:30:15.289Z,29.71
2019-04-06T00:31:07.857Z,29.71
2019-04-06T00:32:11.700Z,29.68
2019-04-06T00:32:52.376Z,29.73
2019-04-06T00:33:28.651Z,29.75
2019-04-06T00:34:04.652Z,29.74
2019-04-06T00:34:40.803Z,29.79
2019-04-06T00:35:17.811Z,29.87
2019-04-06T00:35:53.926Z,29.87
2019-04-06T00:36:30.007Z,29.84
2019-04-06T00:37:11.507Z,29.87
2019-04-06T00:37:47.894Z,29.88
2019-04-06T00:38:24.097Z,29.92
2019-04-06T00:39:00.472Z,29.98
2019-04-06T00:39:36.834Z,30.02
2019-04-06T00:40:13.278Z,30.01
2019-04-06T00:40:49.385Z,30.10
2019-04-06T00:41:25.704Z,30.12
2019-04-06T00:42:02.017Z,30.11
2019-04-06T00:42:38.218Z,30.11
2019-04-06T00:43:14.508Z,30.12
2019-04-06T00:43:50.660Z,30.13
2019-04-06T00:44:26.852Z,30.14
2019-04-06T00:45:03.167Z,30.15
2019-04-06T00:45:39.495Z,30.15
2019-04-06T00:46:15.666Z,30.14
2019-04-06T00:46:51.669Z,30.17
2019-04-06T00:47:28.585Z,30.20
2019-04-06T00:48:05.536Z,30.20
2019-04-06T00:48:41.800Z,30.21
2019-04-06T00:49:18.102Z,30.27
2019-04-06T00:49:54.291Z,30.27
2019-04-06T00:50:30.592Z,30.29
2019-04-06T00:51:06.719Z,30.29
2019-04-06T00:51:43.023Z,30.27
2019-04-06T00:52:19.445Z,30.25
2019-04-06T00:52:55.536Z,30.25
2019-04-06T00:53:31.821Z,30.18
2019-04-06T00:54:08.066Z,30.22
2019-04-06T00:54:44.260Z,30.16
2019-04-06T00:55:20.484Z,30.16
2019-04-06T00:55:56.561Z,30.21
2019-04-06T00:56:33.549Z,30.21
2019-04-06T00:57:09.660Z,30.21
2019-04-06T00:57:45.788Z,30.20
2019-04-06T00:58:22.110Z,30.14
2019-04-06T00:58:58.291Z,30.14
2019-04-06T00:59:34.447Z,30.21
2019-04-06T01:00:10.657Z,30.21
2019-04-06T01:00:46.734Z,30.21
2019-04-06T01:01:22.857Z,30.21
2019-04-06T01:01:59.134Z,30.20
2019-04-06T01:02:35.526Z,30.20
2019-04-06T01:03:12.107Z,30.19
2019-04-06T01:03:48.077Z,30.15
2019-04-06T01:04:24.218Z,30.16
2019-04-06T01:05:00.316Z,30.15
2019-04-06T01:05:37.229Z,30.15
2019-04-06T01:06:13.402Z,30.15
2019-04-06T01:06:49.542Z,30.13
2019-04-06T01:07:25.650Z,30.13
2019-04-06T01:08:01.802Z,30.12
2019-04-06T01:08:38.009Z,30.13
2019-04-06T01:09:14.855Z,30.13
2019-04-06T01:09:51.136Z,30.14
2019-04-06T01:10:27.350Z,30.17
2019-04-06T01:11:03.577Z,30.17
2019-04-06T01:11:39.871Z,30.20
2019-04-06T01:12:16.025Z,30.23
2019-04-06T01:12:52.297Z,30.26
2019-04-06T01:13:28.589Z,30.30
2019-04-06T01:14:04.916Z,30.33
2019-04-06T01:14:41.057Z,30.42
2019-04-06T01:15:17.241Z,30.42
2019-04-06T01:15:53.503Z,30.53
2019-04-06T01:16:29.824Z,30.57
2019-04-06T01:17:06.044Z,30.59
2019-04-06T01:17:42.759Z,30.59
2019-04-06T01:18:18.880Z,30.67
2019-04-06T01:18:55.057Z,30.85
2019-04-06T01:19:31.187Z,30.93
2019-04-06T01:20:07.668Z,30.93
2019-04-06T01:20:43.789Z,30.98
2019-04-06T01:21:19.971Z,31.04
2019-04-06T01:21:56.299Z,31.05
2019-04-06T01:22:33.125Z,31.13
2019-04-06T01:23:09.276Z,31.18
2019-04-06T01:23:45.630Z,31.28
2019-04-06T01:24:21.780Z,31.28
2019-04-06T01:24:58.073Z,31.30
2019-04-06T01:25:34.342Z,31.29
2019-04-06T01:26:10.421Z,31.29
2019-04-06T01:26:47.177Z,31.27
2019-04-06T01:27:23.694Z,31.28
2019-04-06T01:27:59.985Z,31.32
2019-04-06T01:28:36.236Z,31.34
2019-04-06T01:29:12.337Z,31.36
2019-04-06T01:29:48.598Z,31.37
2019-04-06T01:30:25.004Z,31.39
2019-04-06T01:31:01.321Z,31.47
2019-04-06T01:31:37.942Z,31.55
2019-04-06T01:32:13.916Z,31.66
2019-04-06T01:32:50.295Z,31.73
2019-04-06T01:33:26.363Z,31.81
2019-04-06T01:34:02.410Z,31.90
2019-04-06T01:34:38.569Z,32.03
2019-04-06T01:35:15.216Z,32.07
2019-04-06T01:35:51.482Z,32.17
2019-04-06T01:36:27.701Z,32.22
2019-04-06T01:37:03.711Z,32.22
2019-04-06T01:37:39.799Z,32.17
2019-04-06T01:38:15.953Z,32.10
2019-04-06T01:38:52.043Z,32.06
2019-04-06T01:39:28.457Z,32.01
2019-04-06T01:40:05.223Z,32.01
2019-04-06T01:40:41.651Z,31.95
2019-04-06T01:41:17.992Z,31.93
2019-04-06T01:41:54.474Z,31.90
2019-04-06T01:42:30.750Z,31.83
2019-04-06T01:43:07.219Z,31.82
2019-04-06T01:43:44.633Z,31.80
2019-04-06T01:44:21.241Z,31.78
2019-04-06T01:44:57.351Z,31.79
2019-04-06T01:45:33.324Z,31.78
2019-04-06T01:46:09.402Z,31.79
2019-04-06T01:46:45.628Z,31.79
2019-04-06T01:47:21.844Z,31.78
2019-04-06T01:47:58.008Z,31.75
2019-04-06T01:48:34.673Z,31.74
2019-04-06T01:49:10.927Z,31.73
2019-04-06T01:49:47.206Z,31.72
2019-04-06T01:50:23.498Z,31.71
2019-04-06T01:50:59.627Z,31.72
2019-04-06T01:51:35.831Z,31.71
2019-04-06T01:52:12.563Z,31.68
2019-04-06T01:52:49.299Z,31.67
2019-04-06T01:53:25.478Z,31.67
2019-04-06T01:54:01.605Z,31.65
2019-04-06T01:54:37.845Z,31.65
2019-04-06T01:55:14.195Z,31.65
2019-04-06T01:55:50.349Z,31.68
2019-04-06T01:56:26.525Z,31.67
2019-04-06T01:57:03.311Z,31.66
2019-04-06T01:57:39.404Z,31.67
2019-04-06T01:58:15.589Z,31.66
2019-04-06T01:58:51.738Z,31.66
2019-04-06T01:59:27.942Z,31.67
2019-04-06T02:00:04.219Z,31.68
2019-04-06T02:00:42.967Z,31.70
2019-04-06T02:01:24.362Z,31.72
2019-04-06T02:02:25.213Z,31.73
2019-04-06T02:03:01.313Z,31.75
2019-04-06T02:03:37.481Z,31.76
2019-04-06T02:04:13.865Z,31.75
2019-04-06T02:04:50.099Z,31.74
2019-04-06T02:05:27.200Z,31.75
2019-04-06T02:06:04.089Z,31.74
2019-04-06T02:06:40.427Z,31.74
2019-04-06T02:07:16.715Z,31.75
2019-04-06T02:07:53.138Z,31.76
2019-04-06T02:08:29.258Z,31.75
2019-04-06T02:09:06.265Z,31.74
2019-04-06T02:09:42.689Z,31.75
2019-04-06T02:10:19.086Z,31.75
2019-04-06T02:10:55.410Z,31.75
2019-04-06T02:11:31.568Z,31.76
2019-04-06T02:12:07.878Z,31.76
2019-04-06T02:12:44.100Z,31.77
2019-04-06T02:13:20.145Z,31.79
2019-04-06T02:13:56.150Z,31.80
2019-04-06T02:14:32.139Z,31.81
2019-04-06T02:15:08.900Z,31.82
2019-04-06T02:15:45.129Z,31.83
2019-04-06T02:16:21.412Z,31.83
2019-04-06T02:16:57.780Z,31.84
2019-04-06T02:17:33.957Z,31.86
2019-04-06T02:18:10.494Z,31.87
2019-04-06T02:18:46.776Z,31.91
2019-04-06T02:19:23.125Z,31.90
2019-04-06T02:19:59.258Z,31.93
2019-04-06T02:20:35.433Z,31.95
2019-04-06T02:21:11.627Z,31.96
2019-04-06T02:21:48.011Z,31.97
2019-04-06T02:22:24.025Z,31.99
2019-04-06T02:23:00.498Z,32.02
2019-04-06T02:23:36.648Z,32.04
2019-04-06T02:24:12.931Z,32.08
2019-04-06T02:24:49.218Z,32.08
2019-04-06T02:25:25.367Z,32.09
2019-04-06T02:26:01.630Z,32.12
2019-04-06T02:26:37.815Z,32.18
2019-04-06T02:27:14.278Z,32.21
2019-04-06T02:27:50.671Z,32.23
2019-04-06T02:28:26.810Z,32.25
2019-04-06T02:29:02.903Z,32.28
2019-04-06T02:29:39.335Z,32.37
2019-04-06T02:30:28.270Z,32.50
2019-04-06T02:31:25.865Z,32.58
2019-04-06T02:32:26.794Z,32.91
2019-04-06T02:33:19.924Z,33.25
2019-04-06T02:34:13.164Z,33.48
2019-04-06T02:35:11.115Z,33.63
2019-04-06T02:36:16.029Z,33.72
2019-04-06T02:37:09.661Z,34.00
2019-04-06T02:38:07.473Z,34.33
2019-04-06T02:39:06.678Z,34.47
2019-04-06T02:40:01.789Z,34.61
2019-04-06T02:40:48.031Z,34.77
2019-04-06T02:41:41.125Z,34.97
2019-04-06T02:42:20.711Z,35.16
2019-04-06T02:43:04.163Z,35.32
2019-04-06T02:43:40.541Z,35.45
2019-04-06T02:44:16.883Z,35.56
2019-04-06T02:44:53.528Z,35.67
2019-04-06T02:45:29.811Z,35.75
2019-04-06T02:46:05.992Z,35.74
2019-04-06T02:46:42.249Z,35.74
2019-04-06T02:47:18.575Z,35.74
2019-04-06T02:47:54.707Z,35.83
2019-04-06T02:48:31.600Z,35.92
2019-04-06T02:49:08.054Z,36.03
2019-04-06T02:49:44.285Z,36.10
2019-04-06T02:50:20.593Z,36.18
2019-04-06T02:50:56.841Z,36.28
2019-04-06T02:51:33.021Z,36.36
2019-04-06T02:52:09.359Z,36.42
2019-04-06T02:52:45.636Z,36.43
2019-04-06T02:53:21.843Z,36.44
2019-04-06T02:53:58.072Z,36.45
2019-04-06T02:54:34.408Z,36.52
2019-04-06T02:55:10.709Z,36.50
2019-04-06T02:55:46.965Z,36.48
2019-04-06T02:56:23.329Z,36.55
2019-04-06T02:56:59.718Z,36.52
2019-04-06T02:57:35.978Z,36.41
2019-04-06T02:58:12.454Z,36.28
2019-04-06T02:58:48.768Z,36.28
2019-04-06T02:59:25.085Z,36.29
2019-04-06T03:00:01.327Z,36.35
2019-04-06T03:00:37.784Z,36.43
2019-04-06T03:01:14.061Z,36.47
2019-04-06T03:01:50.311Z,36.46
2019-04-06T03:02:27.020Z,36.49
2019-04-06T03:03:03.306Z,36.48
2019-04-06T03:03:39.846Z,36.53
2019-04-06T03:04:16.167Z,36.51
2019-04-06T03:04:52.911Z,36.44
2019-04-06T03:05:29.614Z,36.44
2019-04-06T03:06:06.198Z,36.41
2019-04-06T03:06:42.376Z,36.42
2019-04-06T03:07:18.583Z,36.37
2019-04-06T03:07:55.007Z,36.43
2019-04-06T03:08:31.254Z,36.46
2019-04-06T03:09:11.270Z,36.45
2019-04-06T03:09:46.296Z,36.48
2019-04-06T03:10:22.760Z,36.51
2019-04-06T03:10:59.120Z,36.55
2019-04-06T03:11:35.444Z,36.63
2019-04-06T03:12:11.782Z,36.64
2019-04-06T03:12:48.089Z,36.59
2019-04-06T03:13:24.577Z,36.54
2019-04-06T03:14:00.817Z,36.54
2019-04-06T03:14:37.407Z,36.58
2019-04-06T03:15:14.035Z,36.64
2019-04-06T03:15:50.413Z,36.61
2019-04-06T03:16:26.839Z,36.60
2019-04-06T03:17:03.209Z,36.46
2019-04-06T03:17:39.558Z,36.41
2019-04-06T03:18:15.736Z,36.35
2019-04-06T03:18:52.168Z,36.30
2019-04-06T03:19:28.384Z,36.26
2019-04-06T03:20:04.557Z,36.17
2019-04-06T03:20:40.593Z,36.24
2019-04-06T03:21:16.815Z,36.28
2019-04-06T03:21:52.899Z,36.31
2019-04-06T03:22:29.222Z,36.27
2019-04-06T03:23:05.386Z,36.34
2019-04-06T03:23:50.588Z,36.41
2019-04-06T03:24:19.899Z,36.48
2019-04-06T03:24:56.078Z,36.55
2019-04-06T03:25:32.229Z,36.59
2019-04-06T03:26:08.316Z,36.62
2019-04-06T03:26:59.793Z,36.65
2019-04-06T03:27:26.631Z,36.71
2019-04-06T03:28:03.743Z,36.79
2019-04-06T03:28:40.032Z,36.86
2019-04-06T03:29:16.876Z,36.90
2019-04-06T03:29:58.523Z,36.94
2019-04-06T03:30:31.543Z,36.98
2019-04-06T03:31:07.684Z,36.99
2019-04-06T03:31:44.063Z,37.00
2019-04-06T03:32:20.630Z,37.04
2019-04-06T03:32:57.181Z,37.02
2019-04-06T03:33:33.396Z,37.08
2019-04-06T03:34:09.881Z,37.11
2019-04-06T03:34:46.003Z,37.16
2019-04-06T03:35:22.311Z,37.19
2019-04-06T03:35:59.132Z,37.21
2019-04-06T03:36:35.358Z,37.25
2019-04-06T03:37:11.474Z,37.24
2019-04-06T03:37:47.766Z,37.28
2019-04-06T03:38:24.011Z,37.29
2019-04-06T03:39:00.364Z,37.29
2019-04-06T03:39:36.435Z,37.32
2019-04-06T03:40:12.649Z,37.33
2019-04-06T03:40:48.914Z,37.33
2019-04-06T03:41:25.120Z,37.38
2019-04-06T03:42:01.243Z,37.42
2019-04-06T03:42:37.856Z,37.45
2019-04-06T03:43:14.089Z,37.50
2019-04-06T03:43:50.213Z,37.53
2019-04-06T03:44:26.542Z,37.55
2019-04-06T03:45:02.897Z,37.53
2019-04-06T03:45:38.933Z,37.53
2019-04-06T03:46:15.382Z,37.46
2019-04-06T03:46:51.704Z,37.47
2019-04-06T03:47:27.994Z,37.49
2019-04-06T03:48:04.309Z,37.50
2019-04-06T03:48:40.863Z,37.53
2019-04-06T03:49:17.150Z,37.56
2019-04-06T03:49:53.298Z,37.59
2019-04-06T03:50:29.903Z,37.62
2019-04-06T03:51:06.218Z,37.64
2019-04-06T03:51:42.507Z,37.64
2019-04-06T03:52:18.628Z,37.66
2019-04-06T03:52:54.845Z,37.70
2019-04-06T03:53:31.053Z,37.69
2019-04-06T03:54:07.653Z,37.69
2019-04-06T03:54:44.048Z,37.71
2019-04-06T03:55:20.124Z,37.73
2019-04-06T03:55:56.273Z,37.75
2019-04-06T03:56:32.437Z,37.78
2019-04-06T03:57:16.291Z,37.80
2019-04-06T03:57:46.809Z,37.82
2019-04-06T03:58:23.010Z,37.86
2019-04-06T03:58:59.154Z,37.88
2019-04-06T03:59:35.393Z,37.90
2019-04-06T04:00:13.293Z,37.89
2019-04-06T04:00:49.397Z,37.90
2019-04-06T04:01:25.556Z,37.94
2019-04-06T04:02:02.362Z,37.96
2019-04-06T04:02:38.453Z,37.94
2019-04-06T04:03:14.631Z,37.96
2019-04-06T04:03:51.231Z,37.95
2019-04-06T04:04:27.553Z,37.97
2019-04-06T04:05:03.664Z,38.01
2019-04-06T04:05:40.048Z,38.05
2019-04-06T04:06:16.560Z,38.09
2019-04-06T04:06:53.689Z,38.12
2019-04-06T04:07:30.029Z,38.15
2019-04-06T04:08:06.649Z,38.17
2019-04-06T04:08:42.671Z,38.20
2019-04-06T04:09:18.893Z,38.19
2019-04-06T04:09:55.102Z,38.24
2019-04-06T04:10:49.183Z,38.26
2019-04-06T04:11:25.463Z,38.30
2019-04-06T04:12:01.773Z,38.34
2019-04-06T04:12:38.019Z,38.35
2019-04-06T04:13:14.188Z,38.35
2019-04-06T04:13:50.334Z,38.38
2019-04-06T04:14:26.462Z,38.37
2019-04-06T04:15:02.953Z,38.38
2019-04-06T04:15:39.365Z,38.38
2019-04-06T04:16:15.429Z,38.37
2019-04-06T04:16:51.702Z,38.37
2019-04-06T04:17:28.104Z,38.35
2019-04-06T04:18:06.213Z,38.35
2019-04-06T04:18:42.439Z,38.38
2019-04-06T04:19:18.752Z,38.36
2019-04-06T04:19:55.000Z,38.37
2019-04-06T04:20:31.302Z,38.38
2019-04-06T04:21:07.500Z,38.40
2019-04-06T04:21:43.700Z,38.41
2019-04-06T04:22:20.120Z,38.45
2019-04-06T04:22:56.507Z,38.47
2019-04-06T04:23:32.819Z,38.47
2019-04-06T04:24:09.490Z,38.47
2019-04-06T04:24:45.651Z,38.48
2019-04-06T04:25:21.829Z,38.49
2019-04-06T04:25:58.056Z,38.46
2019-04-06T04:26:34.398Z,38.48
2019-04-06T04:27:10.492Z,38.45
2019-04-06T04:27:47.507Z,38.44
2019-04-06T04:28:23.933Z,38.42
2019-04-06T04:29:00.060Z,38.45
2019-04-06T04:29:36.244Z,38.39
2019-04-06T04:30:15.022Z,38.32
2019-04-06T04:30:50.705Z,38.32
2019-04-06T04:31:26.936Z,38.21
2019-04-06T04:32:04.005Z,38.17
2019-04-06T04:32:40.584Z,38.16
2019-04-06T04:33:16.838Z,38.16
2019-04-06T04:33:53.004Z,38.20
2019-04-06T04:34:29.172Z,38.23
2019-04-06T04:35:05.409Z,38.25
2019-04-06T04:35:41.611Z,38.22
2019-04-06T04:36:17.734Z,38.27
2019-04-06T04:36:53.889Z,38.29
2019-04-06T04:37:30.168Z,38.27
2019-04-06T04:38:06.313Z,38.18
2019-04-06T04:38:42.450Z,38.18
2019-04-06T04:39:18.576Z,38.21
2019-04-06T04:39:54.758Z,38.25
2019-04-06T04:40:31.069Z,38.28
2019-04-06T04:41:07.866Z,38.31
2019-04-06T04:41:44.073Z,38.33
2019-04-06T04:42:20.318Z,38.28
2019-04-06T04:42:56.455Z,38.33
2019-04-06T04:43:32.689Z,38.37
2019-04-06T04:44:08.910Z,38.41
2019-04-06T04:44:45.036Z,38.45
2019-04-06T04:45:21.309Z,38.49
2019-04-06T04:45:57.580Z,38.52
2019-04-06T04:46:33.713Z,38.57
2019-04-06T04:47:09.921Z,38.63
2019-04-06T04:47:46.080Z,38.65
2019-04-06T04:48:22.200Z,38.67
2019-04-06T04:48:58.490Z,38.68
2019-04-06T04:49:34.850Z,38.60
2019-04-06T04:50:11.462Z,38.44
2019-04-06T04:50:47.937Z,38.30
2019-04-06T04:51:24.083Z,38.16
2019-04-06T04:52:00.418Z,38.03
2019-04-06T04:52:36.615Z,37.88
2019-04-06T04:53:12.854Z,37.76
2019-04-06T04:53:49.502Z,37.63
2019-04-06T04:54:26.084Z,37.49
2019-04-06T04:55:02.226Z,37.55
2019-04-06T04:55:38.460Z,37.63
2019-04-06T04:56:14.550Z,37.71
2019-04-06T04:56:50.845Z,37.75
2019-04-06T04:57:27.113Z,37.83
2019-04-06T04:58:03.692Z,37.90
2019-04-06T04:58:39.970Z,37.99
2019-04-06T04:59:16.103Z,38.05
2019-04-06T04:59:52.244Z,38.11
2019-04-06T05:00:28.394Z,38.17
2019-04-06T05:01:04.649Z,38.10
2019-04-06T05:01:40.839Z,37.95
2019-04-06T05:02:17.069Z,37.85
2019-04-06T05:02:54.080Z,37.92
2019-04-06T05:03:30.165Z,38.02
2019-04-06T05:04:06.291Z,38.11
2019-04-06T05:04:42.267Z,38.18
2019-04-06T05:05:18.451Z,38.22
2019-04-06T05:05:54.517Z,38.22
2019-04-06T05:06:30.772Z,38.25
2019-04-06T05:07:06.911Z,38.29
2019-04-06T05:07:43.087Z,38.33
2019-04-06T05:08:19.293Z,38.38
2019-04-06T05:08:55.406Z,38.41
2019-04-06T05:09:31.552Z,38.46
2019-04-06T05:10:11.727Z,38.46
2019-04-06T05:10:47.886Z,38.49
2019-04-06T05:11:23.838Z,38.50
2019-04-06T05:12:00.110Z,38.54
2019-04-06T05:12:36.231Z,38.55
2019-04-06T05:13:12.385Z,38.47
2019-04-06T05:13:48.847Z,38.37
2019-04-06T05:15:01.828Z,38.25
2019-04-06T05:16:17.949Z,38.14
2019-04-06T05:16:54.106Z,37.88
2019-04-06T05:17:30.269Z,37.61
2019-04-06T05:18:06.368Z,37.52
2019-04-06T05:18:43.032Z,37.44
2019-04-06T05:19:19.414Z,37.34
2019-04-06T05:19:55.678Z,37.23
2019-04-06T05:20:31.868Z,37.08
2019-04-06T05:21:08.157Z,36.93
2019-04-06T05:21:44.352Z,36.82
2019-04-06T05:22:20.531Z,36.68
2019-04-06T05:22:56.657Z,36.52
2019-04-06T05:23:32.846Z,36.38
2019-04-06T05:24:09.845Z,36.26
2019-04-06T05:24:45.981Z,36.28
2019-04-06T05:25:22.300Z,36.36
2019-04-06T05:25:58.370Z,36.29
2019-04-06T05:26:37.991Z,36.23
2019-04-06T05:27:12.523Z,36.14
2019-04-06T05:27:52.536Z,36.20
2019-04-06T05:28:27.997Z,36.34
2019-04-06T05:29:04.094Z,36.43
2019-04-06T05:29:40.221Z,36.52
2019-04-06T05:30:16.595Z,36.56
2019-04-06T05:30:52.715Z,36.65
2019-04-06T05:31:28.790Z,36.71
2019-04-06T05:32:05.003Z,36.78
2019-04-06T05:32:41.600Z,36.86
2019-04-06T05:33:17.687Z,36.94
2019-04-06T05:33:54.070Z,36.98
2019-04-06T05:34:30.333Z,37.05
2019-04-06T05:35:06.675Z,37.10
2019-04-06T05:35:42.813Z,37.05
2019-04-06T05:36:19.045Z,37.13
2019-04-06T05:36:55.262Z,37.20
2019-04-06T05:37:32.070Z,37.27
2019-04-06T05:38:08.189Z,37.34
2019-04-06T05:38:44.367Z,37.44
2019-04-06T05:39:20.655Z,37.51
2019-04-06T05:39:56.673Z,37.55
2019-04-06T05:40:32.746Z,37.60
2019-04-06T05:41:35.432Z,37.69
2019-04-06T05:42:11.790Z,37.75
2019-04-06T05:42:49.342Z,37.79
2019-04-06T05:43:25.710Z,37.83
2019-04-06T05:44:02.183Z,37.85
2019-04-06T05:44:38.815Z,37.81
2019-04-06T05:45:15.215Z,37.75
2019-04-06T05:45:56.323Z,37.79
2019-04-06T05:46:32.586Z,37.82
2019-04-06T05:47:08.909Z,37.84
2019-04-06T05:47:50.711Z,37.85
2019-04-06T05:48:29.407Z,37.86
2019-04-06T05:49:27.196Z,37.89
2019-04-06T05:50:05.288Z,37.91
2019-04-06T05:50:41.497Z,37.94
2019-04-06T05:51:17.901Z,37.96
2019-04-06T05:52:11.679Z,37.97
2019-04-06T05:52:50.836Z,37.99
2019-04-06T05:53:29.722Z,38.01
2019-04-06T05:54:14.992Z,38.01
2019-04-06T05:54:54.588Z,38.05
2019-04-06T05:55:33.183Z,38.05
2019-04-06T05:56:13.272Z,38.11
2019-04-06T05:56:53.836Z,38.14
2019-04-06T05:57:32.360Z,38.20
2019-04-06T05:58:14.026Z,38.22
2019-04-06T05:58:53.347Z,38.28
2019-04-06T05:59:32.980Z,38.31
2019-04-06T06:00:10.582Z,38.30
2019-04-06T06:00:48.587Z,38.31
2019-04-06T06:01:24.785Z,38.32
2019-04-06T06:02:21.304Z,38.37
2019-04-06T06:03:03.310Z,38.39
2019-04-06T06:03:42.164Z,38.41
2019-04-06T06:04:23.078Z,38.43
2019-04-06T06:05:11.977Z,38.46
2019-04-06T06:05:56.143Z,38.51
2019-04-06T06:06:34.853Z,38.55
2019-04-06T06:07:12.882Z,38.58
2019-04-06T06:07:53.417Z,38.62
2019-04-06T06:08:31.262Z,38.67
2019-04-06T06:09:20.139Z,38.60
2019-04-06T06:10:01.878Z,38.65
2019-04-06T06:10:41.438Z,38.65
2019-04-06T06:11:17.711Z,38.70
2019-04-06T06:11:56.323Z,38.74
2019-04-06T06:12:35.099Z,38.75
2019-04-06T06:13:12.671Z,38.76
2019-04-06T06:13:52.122Z,38.77
2019-04-06T06:14:30.810Z,38.75
2019-04-06T06:15:07.353Z,38.71
2019-04-06T06:15:47.500Z,38.72
2019-04-06T06:16:24.489Z,38.75
2019-04-06T06:17:08.730Z,38.69
2019-04-06T06:17:44.984Z,38.70
2019-04-06T06:18:41.080Z,38.72
2019-04-06T06:19:54.553Z,38.75
2019-04-06T06:20:33.719Z,38.77
2019-04-06T06:21:14.366Z,38.78
2019-04-06T06:21:51.872Z,38.78
2019-04-06T06:22:28.001Z,38.79
2019-04-06T06:23:04.442Z,38.80
2019-04-06T06:23:44.720Z,38.80
2019-04-06T06:24:23.707Z,38.79
2019-04-06T06:25:02.253Z,38.78
2019-04-06T06:26:35.776Z,38.80
2019-04-06T06:27:12.871Z,38.77
2019-04-06T06:28:14.932Z,38.82
2019-04-06T06:29:10.664Z,38.84
2019-04-06T06:29:48.960Z,38.85
2019-04-06T06:30:27.661Z,38.85
2019-04-06T06:31:05.895Z,38.86
2019-04-06T06:31:43.041Z,38.86
2019-04-06T06:32:20.609Z,38.86
2019-04-06T06:32:57.745Z,38.87
2019-04-06T06:33:34.680Z,38.87
2019-04-06T06:34:10.845Z,38.86
2019-04-06T06:34:47.588Z,38.87
2019-04-06T06:35:23.895Z,38.88
2019-04-06T06:36:00.991Z,38.84
2019-04-06T06:36:38.547Z,38.86
2019-04-06T06:37:15.595Z,38.85
2019-04-06T06:38:06.568Z,38.86
2019-04-06T06:38:44.065Z,38.85
2019-04-06T06:39:20.440Z,38.81
2019-04-06T06:40:11.789Z,38.80
2019-04-06T06:40:48.542Z,38.80
2019-04-06T06:41:25.959Z,38.79
2019-04-06T06:42:03.663Z,38.81
2019-04-06T06:42:42.073Z,38.77
2019-04-06T06:43:20.989Z,38.77
2019-04-06T06:43:58.198Z,38.78
2019-04-06T06:44:35.224Z,38.82
2019-04-06T06:45:14.558Z,38.83
2019-04-06T06:46:11.604Z,38.84
2019-04-06T06:46:58.224Z,38.88
2019-04-06T06:47:40.566Z,38.85
2019-04-06T06:48:16.893Z,38.93
2019-04-06T06:48:55.140Z,38.97
2019-04-06T06:49:31.367Z,39.03
2019-04-06T06:50:08.371Z,39.07
2019-04-06T06:50:49.068Z,39.07
2019-04-06T06:51:26.289Z,39.09
2019-04-06T06:52:23.028Z,39.13
2019-04-06T06:53:04.806Z,39.15
2019-04-06T06:53:52.846Z,39.18
2019-04-06T06:54:29.349Z,39.24
2019-04-06T06:55:06.253Z,39.22
2019-04-06T06:55:56.078Z,39.24
2019-04-06T06:56:37.814Z,39.30
2019-04-06T06:57:15.417Z,39.30
2019-04-06T06:57:52.603Z,39.35
2019-04-06T06:58:29.086Z,39.38
2019-04-06T06:59:10.765Z,39.39
2019-04-06T06:59:50.630Z,39.40
2019-04-06T07:00:36.507Z,39.40
2019-04-06T07:01:17.103Z,39.39
2019-04-06T07:01:53.596Z,39.32
2019-04-06T07:02:30.733Z,39.08
2019-04-06T07:03:11.193Z,39.02
2019-04-06T07:03:48.338Z,38.96
2019-04-06T07:04:25.360Z,38.87
2019-04-06T07:05:03.163Z,38.69
2019-04-06T07:05:45.511Z,38.49
2019-04-06T07:06:21.810Z,38.35
2019-04-06T07:07:00.904Z,38.14
2019-04-06T07:07:37.389Z,38.06
2019-04-06T07:08:14.037Z,37.93
2019-04-06T07:08:50.968Z,37.92
2019-04-06T07:09:27.683Z,37.96
2019-04-06T07:10:07.274Z,38.05
2019-04-06T07:10:43.624Z,38.12
2019-04-06T07:11:19.789Z,38.17
2019-04-06T07:12:08.183Z,38.24
2019-04-06T07:12:48.061Z,38.31
2019-04-06T07:13:26.496Z,38.42
2019-04-06T07:14:05.232Z,38.50
2019-04-06T07:14:42.075Z,38.56
2019-04-06T07:15:21.245Z,38.57
2019-04-06T07:15:58.263Z,38.65
2019-04-06T07:16:35.522Z,38.68
2019-04-06T07:17:12.166Z,38.66
2019-04-06T07:17:49.234Z,38.66
2019-04-06T07:18:28.904Z,38.67
2019-04-06T07:19:06.026Z,38.75
2019-04-06T07:19:42.918Z,38.78
2019-04-06T07:20:19.835Z,38.75
2019-04-06T07:21:01.603Z,38.80
2019-04-06T07:21:39.056Z,38.87
2019-04-06T07:22:15.595Z,38.90
2019-04-06T07:22:53.781Z,38.95
2019-04-06T07:23:30.815Z,38.95
2019-04-06T07:24:09.114Z,38.89
2019-04-06T07:24:53.882Z,38.77
2019-04-06T07:25:31.789Z,38.68
2019-04-06T07:26:08.475Z,38.55
2019-04-06T07:26:44.699Z,38.48
2019-04-06T07:27:20.986Z,38.41
2019-04-06T07:27:57.938Z,38.33
2019-04-06T07:28:38.094Z,38.22
2019-04-06T07:29:15.714Z,38.01
2019-04-06T07:30:00.058Z,37.90
2019-04-06T07:30:40.620Z,37.81
2019-04-06T07:31:23.583Z,37.66
2019-04-06T07:32:00.610Z,37.57
2019-04-06T07:32:40.774Z,37.51
2019-04-06T07:33:20.283Z,37.42
2019-04-06T07:34:00.178Z,37.32
2019-04-06T07:34:37.680Z,37.24
2019-04-06T07:35:14.898Z,37.18
2019-04-06T07:35:53.224Z,37.24
2019-04-06T07:36:34.510Z,37.34
2019-04-06T07:37:12.087Z,37.32
2019-04-06T07:37:49.800Z,37.25
2019-04-06T07:38:27.309Z,37.21
2019-04-06T07:39:07.023Z,37.17
2019-04-06T07:39:45.686Z,37.19
2019-04-06T07:40:22.515Z,37.16
2019-04-06T07:40:59.243Z,37.23
2019-04-06T07:41:36.356Z,37.40
2019-04-06T07:42:14.385Z,37.53
2019-04-06T07:42:53.083Z,37.65
2019-04-06T07:43:34.238Z,37.74
2019-04-06T07:44:13.070Z,37.84
2019-04-06T07:44:51.009Z,37.96
2019-04-06T07:45:29.451Z,38.05
2019-04-06T07:46:06.204Z,38.14
2019-04-06T07:46:46.820Z,38.25
2019-04-06T07:47:25.397Z,38.37
2019-04-06T07:48:03.552Z,38.46
2019-04-06T07:48:40.305Z,38.55
2019-04-06T07:49:19.829Z,38.62
2019-04-06T07:49:57.432Z,38.72
2019-04-06T07:50:33.555Z,38.80
2019-04-06T07:51:15.004Z,38.87
2019-04-06T07:51:53.948Z,38.95
2019-04-06T07:52:30.973Z,38.99
2019-04-06T07:53:08.974Z,38.95
2019-04-06T07:53:45.750Z,39.00
2019-04-06T07:54:31.614Z,38.97
2019-04-06T07:55:11.890Z,39.00
2019-04-06T07:55:49.063Z,38.86
2019-04-06T07:56:25.222Z,38.75
2019-04-06T07:57:02.203Z,38.66
2019-04-06T07:57:41.270Z,38.57
2019-04-06T07:58:18.519Z,38.55
2019-04-06T07:58:55.213Z,38.67
2019-04-06T07:59:32.104Z,38.71
2019-04-06T08:00:08.497Z,38.76
2019-04-06T08:00:44.838Z,38.79
2019-04-06T08:01:26.117Z,38.77
2019-04-06T08:02:02.940Z,38.67
2019-04-06T08:02:42.686Z,38.65
2019-04-06T08:03:22.107Z,38.58
2019-04-06T08:03:59.134Z,38.47
2019-04-06T08:04:36.986Z,38.39
2019-04-06T08:05:13.464Z,38.31
2019-04-06T08:05:54.729Z,38.21
2019-04-06T08:06:32.384Z,38.14
2019-04-06T08:07:09.000Z,38.08
2019-04-06T08:07:48.585Z,38.00
2019-04-06T08:08:29.000Z,37.93
2019-04-06T08:09:08.871Z,37.86
2019-04-06T08:09:45.449Z,37.76